Olive Bay — VRON5 — position and weather

sailwx.info

Track history (hours):
 
Tides and Currents Weather Stations Pressure Air Temp Water Temp Dewpoint Dewpoint Depression Visibility Wind Speed Wind Dir Waves Ship Positions

Olive Bay

Last reported at 2018-Feb-23 12:26 UTC. Time now 2018-Feb-24 08:38 UTC.
Position N 34°37' E 130°41'.

Length 190 m; draft 6.7 m.

Type: Cargo ship. MMSI: 477314200.

Date/timePositionNaut miles runAvg speedWind from/ knotsBaromVisibWave heightAir tempDewpointWater temp
2018-Feb-23 12:26N 34°37' E 130°41'914.8
2018-Feb-23 11:51N 34°28' E 130°42'714.9
2018-Feb-23 11:25N 34°22' E 130°43'614.7
2018-Feb-23 11:00N 34°16' E 130°43'714.8
2018-Feb-23 10:30N 34°08' E 130°43'713.9
2018-Feb-23 10:00N 34°03' E 130°49'611.6
2018-Feb-23 09:30N 33°58' E 130°53'4 8.0
2018-Feb-23 09:00N 33°54' E 130°54'5 9.7
2018-Feb-23 08:30N 33°58' E 130°58'5 9.0
2018-Feb-23 08:00N 33°57' E 131°03'4 8.4
2018-Feb-23 07:30N 33°54' E 131°08'612.7
2018-Feb-23 07:00N 33°51' E 131°14'713.1
2018-Feb-23 06:30N 33°50' E 131°22'612.9
2018-Feb-23 06:01N 33°49' E 131°30'612.9
2018-Feb-23 05:30N 33°47' E 131°37'713.3
2018-Feb-23 05:00N 33°46' E 131°45'713.4
2018-Feb-23 04:30N 33°45' E 131°53'713.3
2018-Feb-23 03:59N 33°46' E 132°02'613.1
2018-Feb-23 03:30N 33°48' E 132°09'1112.9
2018-Feb-23 02:39N 33°50' E 132°21'212.4
2018-Feb-23 02:30N 33°51' E 132°24'713.4
2018-Feb-23 02:00N 33°53' E 132°31'713.6
2018-Feb-23 01:28N 33°56' E 132°39'613.4
2018-Feb-23 01:00N 34°00' E 132°45'  
2018-Feb-13 22:53N 34°06' E 132°50'512.4
2018-Feb-13 22:28N 34°02' E 132°47'613.0
2018-Feb-13 22:00N 33°57' E 132°43'612.7
2018-Feb-13 21:30N 33°53' E 132°37'712.1
2018-Feb-13 20:56N 33°48' E 132°31'612.4
2018-Feb-13 20:30N 33°45' E 132°26'1813.1
2018-Feb-13 19:07N 33°33' E 132°10'313.2
2018-Feb-13 18:55N 33°31' E 132°08'513.4
2018-Feb-13 18:30N 33°27' E 132°03'612.9
2018-Feb-13 18:00N 33°21' E 131°59'612.1
2018-Feb-13 17:30N 33°15' E 131°60'9 6.5
2018-Feb-13 16:07N 33°07' E 132°06'1 6.2
2018-Feb-13 15:59N 33°07' E 132°06'10 5.6
2018-Feb-13 14:13N 32°59' E 132°13'  
Track history (hours):
 
Tides and Currents Weather Stations Pressure Air Temp Water Temp Dewpoint Dewpoint Depression Visibility Wind Speed Wind Dir Waves Ship Positions

Olive Bay

Last reported at 2018-Feb-23 12:26 UTC. Time now 2018-Feb-24 08:38 UTC.
Position N 34°37' E 130°41'.

Length 190 m; draft 6.7 m.

Type: Cargo ship. MMSI: 477314200.

Date/timePositionNaut miles runAvg speedWind from/ knotsBaromVisibWave heightAir tempDewpointWater temp
2018-Feb-23 12:26N 34°37' E 130°41'914.8
2018-Feb-23 11:51N 34°28' E 130°42'714.9
2018-Feb-23 11:25N 34°22' E 130°43'614.7
2018-Feb-23 11:00N 34°16' E 130°43'714.8
2018-Feb-23 10:30N 34°08' E 130°43'713.9
2018-Feb-23 10:00N 34°03' E 130°49'611.6
2018-Feb-23 09:30N 33°58' E 130°53'4 8.0
2018-Feb-23 09:00N 33°54' E 130°54'5 9.7
2018-Feb-23 08:30N 33°58' E 130°58'5 9.0
2018-Feb-23 08:00N 33°57' E 131°03'4 8.4
2018-Feb-23 07:30N 33°54' E 131°08'612.7
2018-Feb-23 07:00N 33°51' E 131°14'713.1
2018-Feb-23 06:30N 33°50' E 131°22'612.9
2018-Feb-23 06:01N 33°49' E 131°30'612.9
2018-Feb-23 05:30N 33°47' E 131°37'713.3
2018-Feb-23 05:00N 33°46' E 131°45'713.4
2018-Feb-23 04:30N 33°45' E 131°53'713.3
2018-Feb-23 03:59N 33°46' E 132°02'613.1
2018-Feb-23 03:30N 33°48' E 132°09'1112.9
2018-Feb-23 02:39N 33°50' E 132°21'212.4
2018-Feb-23 02:30N 33°51' E 132°24'713.4
2018-Feb-23 02:00N 33°53' E 132°31'713.6
2018-Feb-23 01:28N 33°56' E 132°39'613.4
2018-Feb-23 01:00N 34°00' E 132°45'  
2018-Feb-13 22:53N 34°06' E 132°50'512.4
2018-Feb-13 22:28N 34°02' E 132°47'613.0
2018-Feb-13 22:00N 33°57' E 132°43'612.7
2018-Feb-13 21:30N 33°53' E 132°37'712.1
2018-Feb-13 20:56N 33°48' E 132°31'612.4
2018-Feb-13 20:30N 33°45' E 132°26'1813.1
2018-Feb-13 19:07N 33°33' E 132°10'313.2
2018-Feb-13 18:55N 33°31' E 132°08'513.4
2018-Feb-13 18:30N 33°27' E 132°03'612.9
2018-Feb-13 18:00N 33°21' E 131°59'612.1
2018-Feb-13 17:30N 33°15' E 131°60'9 6.5
2018-Feb-13 16:07N 33°07' E 132°06'1 6.2
2018-Feb-13 15:59N 33°07' E 132°06'10 5.6
2018-Feb-13 14:13N 32°59' E 132°13'  

Dump ship's entire track history